createdAt,value
2023-04-05T00:01:26.566Z,3.23
2023-04-05T00:03:56.112Z,3.35
2023-04-05T00:06:26.558Z,3.24
2023-04-05T00:08:55.622Z,3.22
2023-04-05T00:11:24.627Z,3.30
2023-04-05T00:13:53.438Z,3.26
2023-04-05T00:16:23.412Z,3.30
2023-04-05T00:18:52.025Z,3.35
2023-04-05T00:21:22.636Z,3.25
2023-04-05T00:23:51.445Z,3.46
2023-04-05T00:26:21.090Z,3.45
2023-04-05T00:28:54.569Z,3.41
2023-04-05T00:31:24.409Z,3.46
2023-04-05T00:33:53.631Z,3.43
2023-04-05T00:36:22.333Z,3.22
2023-04-05T00:38:50.880Z,3.24
2023-04-05T00:41:19.292Z,3.39
2023-04-05T00:43:48.390Z,3.33
2023-04-05T00:46:18.125Z,3.42
2023-04-05T00:48:48.405Z,3.35
2023-04-05T00:51:17.294Z,3.23
2023-04-05T00:53:46.374Z,3.34
2023-04-05T00:56:16.834Z,3.42
2023-04-05T00:58:45.290Z,3.41
2023-04-05T01:01:18.787Z,3.43
2023-04-05T01:03:54.888Z,3.35
2023-04-05T01:06:44.452Z,3.39
2023-04-05T01:09:26.557Z,3.39
2023-04-05T01:11:58.468Z,3.33
2023-04-05T01:14:26.876Z,3.27
2023-04-05T01:16:58.380Z,3.23
2023-04-05T01:19:30.976Z,3.16
2023-04-05T01:22:42.364Z,3.26
2023-04-05T01:25:36.926Z,3.24
2023-04-05T01:28:36.915Z,3.15
2023-04-05T01:31:12.332Z,3.26
2023-04-05T01:33:50.109Z,3.12
2023-04-05T01:36:27.307Z,3.06
2023-04-05T01:38:57.107Z,3.12
2023-04-05T01:41:26.271Z,3.13
2023-04-05T01:43:54.872Z,3.08
2023-04-05T01:46:24.892Z,3.08
2023-04-05T01:48:53.317Z,3.10
2023-04-05T01:51:21.724Z,3.09
2023-04-05T01:53:50.165Z,3.04
2023-04-05T01:56:18.635Z,3.06
2023-04-05T01:58:47.272Z,2.90
2023-04-05T02:01:15.764Z,2.85
2023-04-05T02:03:45.712Z,2.93
2023-04-05T02:06:14.207Z,2.74
2023-04-05T02:08:42.786Z,2.68
2023-04-05T02:11:11.362Z,2.68
2023-04-05T02:13:40.469Z,2.47
2023-04-05T02:16:08.955Z,2.64
2023-04-05T02:18:38.766Z,2.60
2023-04-05T02:21:10.742Z,2.73
2023-04-05T02:23:39.607Z,2.70
2023-04-05T02:26:08.041Z,2.85
2023-04-05T02:28:36.600Z,2.73
2023-04-05T02:31:11.474Z,2.64
2023-04-05T02:33:43.239Z,2.59
2023-04-05T02:36:14.225Z,2.58
2023-04-05T02:38:42.798Z,2.56
2023-04-05T02:41:12.749Z,2.61
2023-04-05T02:43:41.388Z,2.51
2023-04-05T02:46:09.827Z,2.47
2023-04-05T02:48:43.402Z,2.47
2023-04-05T02:51:15.173Z,2.56
2023-04-05T02:53:44.948Z,2.56
2023-04-05T02:56:16.074Z,2.46
2023-04-05T02:58:48.983Z,2.59
2023-04-05T03:01:20.867Z,2.56
2023-04-05T03:03:49.403Z,2.22
2023-04-05T03:06:20.911Z,2.46
2023-04-05T03:08:51.189Z,2.39
2023-04-05T03:11:24.062Z,2.42
2023-04-05T03:13:57.322Z,2.18
2023-04-05T03:16:36.602Z,2.20
2023-04-05T03:19:11.663Z,2.39
2023-04-05T03:21:46.384Z,2.36
2023-04-05T03:24:27.203Z,2.30
2023-04-05T03:26:59.993Z,2.35
2023-04-05T03:29:28.678Z,2.23
2023-04-05T03:31:58.779Z,2.35
2023-04-05T03:34:29.062Z,2.26
2023-04-05T03:37:03.705Z,2.22
2023-04-05T03:39:41.215Z,1.99
2023-04-05T03:42:09.626Z,2.18
2023-04-05T03:44:38.525Z,1.97
2023-04-05T03:47:07.168Z,1.72
2023-04-05T03:49:35.573Z,1.80
2023-04-05T03:52:05.548Z,1.50
2023-04-05T03:54:33.964Z,1.69
2023-04-05T03:57:03.045Z,1.56
2023-04-05T03:59:32.823Z,1.57
2023-04-05T04:02:03.845Z,1.66
2023-04-05T04:04:33.315Z,1.52
2023-04-05T04:07:01.815Z,1.75
2023-04-05T04:09:32.732Z,1.25
2023-04-05T04:12:08.448Z,1.71
2023-04-05T04:14:41.155Z,1.49
2023-04-05T04:17:31.359Z,1.66
2023-04-05T04:20:15.399Z,1.69
2023-04-05T04:23:02.255Z,1.26
2023-04-05T04:25:54.847Z,1.54
2023-04-05T04:28:39.232Z,1.58
2023-04-05T04:31:26.157Z,1.54
2023-04-05T04:34:15.262Z,1.42
2023-04-05T04:37:01.287Z,1.46
2023-04-05T04:40:06.424Z,1.37
2023-04-05T04:43:00.269Z,1.53
2023-04-05T04:46:00.413Z,1.49
2023-04-05T04:48:42.129Z,1.48
2023-04-05T04:51:19.434Z,1.48
2023-04-05T04:53:47.801Z,1.49
2023-04-05T04:56:16.282Z,1.36
2023-04-05T04:58:46.093Z,1.36
2023-04-05T05:01:14.600Z,1.26
2023-04-05T05:03:43.812Z,1.31
2023-04-05T05:06:13.048Z,1.31
2023-04-05T05:08:41.397Z,1.34
2023-04-05T05:11:09.977Z,1.38
2023-04-05T05:13:38.482Z,1.37
2023-04-05T05:16:10.660Z,1.37
2023-04-05T05:18:40.221Z,1.28
2023-04-05T05:21:08.691Z,1.21
2023-04-05T05:23:37.112Z,1.30
2023-04-05T05:26:06.425Z,1.39
2023-04-05T05:28:34.897Z,1.38
2023-04-05T05:31:04.703Z,1.20
2023-04-05T05:33:37.341Z,1.37
2023-04-05T05:36:06.948Z,1.47
2023-04-05T05:38:35.354Z,1.44
2023-04-05T05:41:03.796Z,1.47
2023-04-05T05:43:32.143Z,1.42
2023-04-05T05:46:03.070Z,1.43
2023-04-05T05:48:31.680Z,1.43
2023-04-05T05:51:09.590Z,1.54
2023-04-05T05:53:39.563Z,1.33
2023-04-05T05:56:08.548Z,1.64
2023-04-05T05:58:36.962Z,1.55
2023-04-05T06:01:05.425Z,1.47
2023-04-05T06:03:33.999Z,1.58
2023-04-05T06:06:06.077Z,1.57
2023-04-05T06:08:34.606Z,1.68
2023-04-05T06:11:03.045Z,1.62
2023-04-05T06:13:31.991Z,1.50
2023-04-05T06:16:02.990Z,1.59
2023-04-05T06:18:31.392Z,1.60
2023-04-05T06:20:59.766Z,1.57
2023-04-05T06:23:29.712Z,1.74
2023-04-05T06:25:58.134Z,1.86
2023-04-05T06:28:26.461Z,1.85
2023-04-05T06:30:55.742Z,1.91
2023-04-05T06:33:24.113Z,2.11
2023-04-05T06:35:52.615Z,1.93
2023-04-05T06:38:21.019Z,2.14
2023-04-05T06:40:51.209Z,2.33
2023-04-05T06:43:19.560Z,2.11
2023-04-05T06:45:48.025Z,2.42
2023-04-05T06:48:16.449Z,2.52
2023-04-05T06:50:44.820Z,2.76
2023-04-05T06:53:15.266Z,2.91
2023-04-05T06:55:43.627Z,2.89
2023-04-05T06:58:13.327Z,2.81
2023-04-05T07:00:41.923Z,2.88
2023-04-05T07:03:10.568Z,3.02
2023-04-05T07:05:38.969Z,3.41
2023-04-05T07:08:07.643Z,3.26
2023-04-05T07:10:36.406Z,3.25
2023-04-05T07:13:04.889Z,3.43
2023-04-05T07:15:34.576Z,3.55
2023-04-05T07:18:03.081Z,3.45
2023-04-05T07:20:31.496Z,4.09
2023-04-05T07:22:59.901Z,5.18
2023-04-05T07:25:28.402Z,5.79
2023-04-05T07:27:57.104Z,6.67
2023-04-05T07:30:27.241Z,6.95
2023-04-05T07:32:56.949Z,6.84
2023-04-05T07:35:25.436Z,7.12
2023-04-05T07:37:53.819Z,7.25
2023-04-05T07:40:22.188Z,7.11
2023-04-05T07:42:50.744Z,7.14
2023-04-05T07:45:19.393Z,7.00
2023-04-05T07:47:47.846Z,7.15
2023-04-05T07:50:17.909Z,7.57
2023-04-05T07:52:46.307Z,7.89
2023-04-05T07:55:14.722Z,8.35
2023-04-05T07:57:43.135Z,8.29
2023-04-05T08:00:13.524Z,8.55
2023-04-05T08:02:42.071Z,8.81
2023-04-05T08:05:10.706Z,9.02
2023-04-05T08:07:40.450Z,8.74
2023-04-05T08:10:09.504Z,8.17
2023-04-05T08:12:39.034Z,8.44
2023-04-05T08:15:08.935Z,8.38
2023-04-05T08:17:37.359Z,8.42
2023-04-05T08:20:07.347Z,9.20
2023-04-05T08:22:35.703Z,9.03
2023-04-05T08:25:06.358Z,9.61
2023-04-05T08:27:34.795Z,9.50
2023-04-05T08:30:03.249Z,9.85
2023-04-05T08:32:33.031Z,10.26
2023-04-05T08:35:01.586Z,10.18
2023-04-05T08:37:30.101Z,9.78
2023-04-05T08:39:58.876Z,9.94
2023-04-05T08:42:35.944Z,9.93
2023-04-05T08:45:06.852Z,10.53
2023-04-05T08:47:38.938Z,10.07
2023-04-05T08:50:09.751Z,9.46
2023-04-05T08:52:43.133Z,9.69
2023-04-05T08:55:11.538Z,10.21
2023-04-05T08:57:44.588Z,10.33
2023-04-05T09:00:15.582Z,10.56
2023-04-05T09:02:46.352Z,10.27
2023-04-05T09:05:16.993Z,10.11
2023-04-05T09:07:47.976Z,10.30
2023-04-05T09:10:17.028Z,9.57
2023-04-05T09:12:46.945Z,9.54
2023-04-05T09:15:16.400Z,9.18
2023-04-05T09:17:45.498Z,9.71
2023-04-05T09:20:14.105Z,10.07
2023-04-05T09:22:46.071Z,10.91
2023-04-05T09:25:34.832Z,10.30
2023-04-05T09:28:07.543Z,9.97
2023-04-05T09:30:37.687Z,10.47
2023-04-05T09:33:10.918Z,10.54
2023-04-05T09:35:39.301Z,10.75
2023-04-05T09:38:07.807Z,10.84
2023-04-05T09:40:46.999Z,10.15
2023-04-05T09:43:41.814Z,10.96
2023-04-05T09:46:32.425Z,10.64
2023-04-05T09:49:01.634Z,10.16
2023-04-05T09:51:40.316Z,10.29
2023-04-05T09:54:12.834Z,9.97
2023-04-05T09:56:42.632Z,9.95
2023-04-05T09:59:13.815Z,10.73
2023-04-05T10:01:46.091Z,10.90
2023-04-05T10:04:14.635Z,11.03
2023-04-05T10:06:44.244Z,11.01
2023-04-05T10:09:15.231Z,10.85
2023-04-05T10:11:45.564Z,10.28
2023-04-05T10:14:16.388Z,11.46
2023-04-05T10:16:54.533Z,11.09
2023-04-05T10:19:30.716Z,11.32
2023-04-05T10:22:03.805Z,11.87
2023-04-05T10:24:41.248Z,11.99
2023-04-05T10:27:19.116Z,12.03
2023-04-05T10:29:55.356Z,11.43
2023-04-05T10:32:32.569Z,11.21
2023-04-05T10:35:11.086Z,10.77
2023-04-05T10:37:52.790Z,10.95
2023-04-05T10:40:23.249Z,10.56
2023-04-05T10:42:51.990Z,11.82
2023-04-05T10:45:23.321Z,12.08
2023-04-05T10:47:56.736Z,10.88
2023-04-05T10:50:26.531Z,11.61
2023-04-05T10:52:55.314Z,12.18
2023-04-05T10:55:24.248Z,11.95
2023-04-05T10:57:53.520Z,11.81
2023-04-05T11:00:24.857Z,11.84
2023-04-05T11:02:57.114Z,11.67
2023-04-05T11:05:34.364Z,11.05
2023-04-05T11:08:07.330Z,11.25
2023-04-05T11:10:38.740Z,11.48
2023-04-05T11:13:12.056Z,11.86
2023-04-05T11:15:42.105Z,11.97
2023-04-05T11:18:13.101Z,11.78
2023-04-05T11:20:47.146Z,11.77
2023-04-05T11:23:18.741Z,11.59
2023-04-05T11:25:53.908Z,11.01
2023-04-05T11:28:29.306Z,11.08
2023-04-05T11:30:59.737Z,11.69
2023-04-05T11:33:57.751Z,11.87
2023-04-05T11:36:33.775Z,11.98
2023-04-05T11:39:30.060Z,10.89
2023-04-05T11:42:02.695Z,11.63
2023-04-05T11:44:41.708Z,10.79
2023-04-05T11:47:12.135Z,11.28
2023-04-05T11:49:42.198Z,10.33
2023-04-05T11:52:16.644Z,10.26
2023-04-05T11:54:49.375Z,10.75
2023-04-05T11:57:22.326Z,10.89
2023-04-05T11:59:53.321Z,11.17
2023-04-05T12:02:23.623Z,11.46
2023-04-05T12:04:57.742Z,11.66
2023-04-05T12:07:29.242Z,11.57
2023-04-05T12:10:08.583Z,11.26
2023-04-05T12:12:39.276Z,11.18
2023-04-05T12:15:11.043Z,11.61
2023-04-05T12:17:43.739Z,11.66
2023-04-05T12:20:14.148Z,12.01
2023-04-05T12:22:45.084Z,11.83
2023-04-05T12:25:14.609Z,11.91
2023-04-05T12:27:43.746Z,11.69
2023-04-05T12:30:16.263Z,11.59
2023-04-05T12:32:48.408Z,11.60
2023-04-05T12:35:22.366Z,11.39
2023-04-05T12:37:52.619Z,10.91
2023-04-05T12:40:25.564Z,11.41
2023-04-05T12:42:53.976Z,11.44
2023-04-05T12:45:25.334Z,11.05
2023-04-05T12:47:59.764Z,10.79
2023-04-05T12:50:30.532Z,10.92
2023-04-05T12:53:01.146Z,11.25
2023-04-05T12:55:31.245Z,10.97
2023-04-05T12:58:01.820Z,10.40
2023-04-05T13:00:32.800Z,9.52
2023-04-05T13:03:02.624Z,10.34
2023-04-05T13:05:31.874Z,10.73
2023-04-05T13:08:00.302Z,10.67
2023-04-05T13:10:28.762Z,10.86
2023-04-05T13:12:57.342Z,10.88
2023-04-05T13:15:25.663Z,10.40
2023-04-05T13:17:55.144Z,9.95
2023-04-05T13:20:25.377Z,9.79
2023-04-05T13:22:53.799Z,9.73
2023-04-05T13:25:22.170Z,9.88
2023-04-05T13:27:50.882Z,10.48
2023-04-05T13:30:19.626Z,10.12
2023-04-05T13:32:48.108Z,10.48
2023-04-05T13:35:16.536Z,9.90
2023-04-05T13:37:46.453Z,9.75
2023-04-05T13:40:14.955Z,9.52
2023-04-05T13:42:43.457Z,10.07
2023-04-05T13:45:13.235Z,9.68
2023-04-05T13:47:42.029Z,9.52
2023-04-05T13:50:11.308Z,9.71
2023-04-05T13:52:39.822Z,9.94
2023-04-05T13:55:10.088Z,9.85
2023-04-05T13:57:38.519Z,10.40
2023-04-05T14:00:09.035Z,10.46
2023-04-05T14:02:40.697Z,10.29
2023-04-05T14:05:10.386Z,10.93
2023-04-05T14:07:39.216Z,10.85
2023-04-05T14:10:11.625Z,11.13
2023-04-05T14:12:40.415Z,10.84
2023-04-05T14:15:09.963Z,10.65
2023-04-05T14:17:38.721Z,10.06
2023-04-05T14:20:09.006Z,9.79
2023-04-05T14:22:37.710Z,9.38
2023-04-05T14:25:08.314Z,9.62
2023-04-05T14:27:42.422Z,10.05
2023-04-05T14:30:12.922Z,9.80
2023-04-05T14:32:41.670Z,9.53
2023-04-05T14:35:11.299Z,9.52
2023-04-05T14:37:39.831Z,9.30
2023-04-05T14:40:09.565Z,9.61
2023-04-05T14:42:48.472Z,9.85
2023-04-05T14:45:17.799Z,10.17
2023-04-05T14:47:46.420Z,10.15
2023-04-05T14:50:15.178Z,10.17
2023-04-05T14:52:43.814Z,10.18
2023-04-05T14:55:13.554Z,10.29
2023-04-05T14:57:43.870Z,10.15
2023-04-05T15:00:14.134Z,10.23
2023-04-05T15:02:42.997Z,10.12
2023-04-05T15:05:11.909Z,9.88
2023-04-05T15:07:40.606Z,9.98
2023-04-05T15:10:12.617Z,9.77
2023-04-05T15:12:42.654Z,9.81
2023-04-05T15:15:12.225Z,10.24
2023-04-05T15:17:41.328Z,10.17
2023-04-05T15:20:11.358Z,10.01
2023-04-05T15:22:40.943Z,10.03
2023-04-05T15:25:11.343Z,9.65
2023-04-05T15:27:40.008Z,9.95
2023-04-05T15:30:11.713Z,9.98
2023-04-05T15:32:40.511Z,9.94
2023-04-05T15:35:10.025Z,9.80
2023-04-05T15:37:39.259Z,9.41
2023-04-05T15:40:09.858Z,9.59
2023-04-05T15:42:38.407Z,9.77
2023-04-05T15:45:10.260Z,9.96
2023-04-05T15:47:39.105Z,9.52
2023-04-05T15:50:08.909Z,10.00
2023-04-05T15:52:37.429Z,10.19
2023-04-05T15:55:07.137Z,10.33
2023-04-05T15:57:35.679Z,10.32
2023-04-05T16:00:04.899Z,10.20
2023-04-05T16:02:34.915Z,10.29
2023-04-05T16:05:03.514Z,9.87
2023-04-05T16:07:32.981Z,9.59
2023-04-05T16:10:01.462Z,9.75
2023-04-05T16:12:30.070Z,9.65
2023-04-05T16:14:58.570Z,9.64
2023-04-05T16:17:27.884Z,9.53
2023-04-05T16:19:58.034Z,9.50
2023-04-05T16:22:28.065Z,9.36
2023-04-05T16:24:56.678Z,9.68
2023-04-05T16:27:25.239Z,9.98
2023-04-05T16:29:53.975Z,10.04
2023-04-05T16:32:22.777Z,9.89
2023-04-05T16:34:51.481Z,10.04
2023-04-05T16:37:21.521Z,9.74
2023-04-05T16:39:51.146Z,9.55
2023-04-05T16:42:19.652Z,9.47
2023-04-05T16:44:48.221Z,9.55
2023-04-05T16:47:16.810Z,9.53
2023-04-05T16:49:45.301Z,9.35
2023-04-05T16:52:13.855Z,9.35
2023-04-05T16:54:43.850Z,9.49
2023-04-05T16:57:12.496Z,9.39
2023-04-05T16:59:47.093Z,9.56
2023-04-05T17:02:15.777Z,9.39
2023-04-05T17:04:44.282Z,9.36
2023-04-05T17:07:12.878Z,9.18
2023-04-05T17:09:41.415Z,9.15
2023-04-05T17:12:12.194Z,8.88
2023-04-05T17:14:41.017Z,8.91
2023-04-05T17:17:09.584Z,8.99
2023-04-05T17:19:38.321Z,9.01
2023-04-05T17:22:06.820Z,9.16
2023-04-05T17:24:36.270Z,9.53
2023-04-05T17:27:05.585Z,9.45
2023-04-05T17:29:35.478Z,9.53
2023-04-05T17:32:04.207Z,9.57
2023-04-05T17:34:32.824Z,9.61
2023-04-05T17:37:01.568Z,9.65
2023-04-05T17:39:30.267Z,9.84
2023-04-05T17:41:58.881Z,9.40
2023-04-05T17:44:30.216Z,9.28
2023-04-05T17:47:08.504Z,9.27
2023-04-05T17:49:38.359Z,9.45
2023-04-05T17:52:08.600Z,9.35
2023-04-05T17:54:38.041Z,9.47
2023-04-05T17:57:06.924Z,9.14
2023-04-05T17:59:36.281Z,9.13
2023-04-05T18:02:06.246Z,9.00
2023-04-05T18:04:35.056Z,8.93
2023-04-05T18:07:03.918Z,9.01
2023-04-05T18:09:33.235Z,9.02
2023-04-05T18:12:02.426Z,8.85
2023-04-05T18:14:31.420Z,8.79
2023-04-05T18:17:02.022Z,8.40
2023-04-05T18:19:32.370Z,8.70
2023-04-05T18:22:01.072Z,8.58
2023-04-05T18:24:30.531Z,8.13
2023-04-05T18:26:59.064Z,8.32
2023-04-05T18:29:30.556Z,8.20
2023-04-05T18:31:59.163Z,8.20
2023-04-05T18:34:27.728Z,8.25
2023-04-05T18:36:57.605Z,8.09
2023-04-05T18:39:27.621Z,8.16
2023-04-05T18:41:56.423Z,8.09
2023-04-05T18:44:24.879Z,8.14
2023-04-05T18:46:54.087Z,7.81
2023-04-05T18:49:22.646Z,8.07
2023-04-05T18:51:51.235Z,8.06
2023-04-05T18:54:23.744Z,8.00
2023-04-05T18:56:52.283Z,7.99
2023-04-05T18:59:21.041Z,7.92
2023-04-05T19:01:49.749Z,7.94
2023-04-05T19:04:18.221Z,8.00
2023-04-05T19:06:46.887Z,8.02
2023-04-05T19:09:16.680Z,7.99
2023-04-05T19:11:46.673Z,7.98
2023-04-05T19:14:15.185Z,7.97
2023-04-05T19:16:43.963Z,7.92
2023-04-05T19:19:12.522Z,7.92
2023-04-05T19:21:41.211Z,7.87
2023-04-05T19:24:09.910Z,7.87
2023-04-05T19:26:39.273Z,7.80
2023-04-05T19:29:09.363Z,7.78
2023-04-05T19:31:38.714Z,7.80
2023-04-05T19:34:08.668Z,7.80
2023-04-05T19:36:39.119Z,7.82
2023-04-05T19:39:08.253Z,7.84
2023-04-05T19:41:37.919Z,7.42
2023-04-05T19:44:13.025Z,7.70
2023-04-05T19:46:42.358Z,7.64
2023-04-05T19:49:15.989Z,7.61
2023-04-05T19:51:44.772Z,7.60
2023-04-05T19:54:14.907Z,7.59
2023-04-05T19:56:43.902Z,7.58
2023-04-05T19:59:31.063Z,7.16
2023-04-05T20:02:00.606Z,7.61
2023-04-05T20:04:34.468Z,7.58
2023-04-05T20:07:03.994Z,7.54
2023-04-05T20:09:34.418Z,7.40
2023-04-05T20:12:05.713Z,7.30
2023-04-05T20:14:42.435Z,7.23
2023-04-05T20:17:12.496Z,7.22
2023-04-05T20:19:43.194Z,7.17
2023-04-05T20:22:11.818Z,7.16
2023-04-05T20:24:40.906Z,7.08
2023-04-05T20:27:11.253Z,7.04
2023-04-05T20:29:41.907Z,7.03
2023-04-05T20:32:10.877Z,7.08
2023-04-05T20:34:43.717Z,6.94
2023-04-05T20:37:13.557Z,6.96
2023-04-05T20:39:42.097Z,6.99
2023-04-05T20:42:11.568Z,6.92
2023-04-05T20:44:41.530Z,6.86
2023-04-05T20:47:13.528Z,6.84
2023-04-05T20:49:42.753Z,6.83
2023-04-05T20:52:11.799Z,6.61
2023-04-05T20:54:40.597Z,6.70
2023-04-05T20:57:09.793Z,5.57
2023-04-05T20:59:38.394Z,6.27
2023-04-05T21:02:08.508Z,6.22
2023-04-05T21:04:37.146Z,6.04
2023-04-05T21:07:06.056Z,5.99
2023-04-05T21:09:34.711Z,6.26
2023-04-05T21:12:04.144Z,6.27
2023-04-05T21:14:32.770Z,6.36
2023-04-05T21:17:01.316Z,6.41
2023-04-05T21:19:31.282Z,6.32
2023-04-05T21:21:59.819Z,6.30
2023-04-05T21:24:28.401Z,6.36
2023-04-05T21:26:56.902Z,6.29
2023-04-05T21:29:25.508Z,5.81
2023-04-05T21:31:54.041Z,6.32
2023-04-05T21:34:22.558Z,6.31
2023-04-05T21:36:52.408Z,6.25
2023-04-05T21:39:20.964Z,6.20
2023-04-05T21:41:49.495Z,6.11
2023-04-05T21:44:18.076Z,5.48
2023-04-05T21:46:46.827Z,5.56
2023-04-05T21:49:15.618Z,5.64
2023-04-05T21:51:44.120Z,5.33
2023-04-05T21:54:14.025Z,5.40
2023-04-05T21:56:43.435Z,5.26
2023-04-05T21:59:11.961Z,5.35
2023-04-05T22:01:40.688Z,5.36
2023-04-05T22:04:09.518Z,5.40
2023-04-05T22:06:39.418Z,5.37
2023-04-05T22:09:08.378Z,5.47
2023-04-05T22:11:38.831Z,5.52
2023-04-05T22:14:07.425Z,5.55
2023-04-05T22:16:36.185Z,5.48
2023-04-05T22:19:06.297Z,5.50
2023-04-05T22:21:35.055Z,5.45
2023-04-05T22:24:03.847Z,5.56
2023-04-05T22:26:33.163Z,5.57
2023-04-05T22:29:03.294Z,5.48
2023-04-05T22:31:32.037Z,5.08
2023-04-05T22:34:01.235Z,5.31
2023-04-05T22:36:29.759Z,5.00
2023-04-05T22:38:58.321Z,5.05
2023-04-05T22:41:26.875Z,4.95
2023-04-05T22:43:55.658Z,4.85
2023-04-05T22:46:25.661Z,4.78
2023-04-05T22:48:55.231Z,4.54
2023-04-05T22:51:24.001Z,4.45
2023-04-05T22:53:52.669Z,4.41
2023-04-05T22:56:21.590Z,4.39
2023-04-05T22:58:50.689Z,4.34
2023-04-05T23:01:19.489Z,4.38
2023-04-05T23:03:49.643Z,4.49
2023-04-05T23:06:18.351Z,4.33
2023-04-05T23:08:47.062Z,4.11
2023-04-05T23:11:15.714Z,4.17
2023-04-05T23:13:44.548Z,4.22
2023-04-05T23:16:13.318Z,4.01
2023-04-05T23:18:41.944Z,4.11
2023-04-05T23:21:12.249Z,4.18
2023-04-05T23:23:41.542Z,4.13
2023-04-05T23:26:10.297Z,3.92
2023-04-05T23:28:38.931Z,3.81
2023-04-05T23:31:07.912Z,3.75
2023-04-05T23:33:36.855Z,3.79
2023-04-05T23:36:06.492Z,3.83
2023-04-05T23:38:36.846Z,3.89
2023-04-05T23:41:06.045Z,3.88
2023-04-05T23:43:34.698Z,3.91
2023-04-05T23:46:03.256Z,3.93
2023-04-05T23:48:31.984Z,3.82
2023-04-05T23:51:00.645Z,3.76
2023-04-05T23:53:29.312Z,3.78
2023-04-05T23:55:59.304Z,3.71
2023-04-05T23:58:28.246Z,3.60
